sensor_id;sensor_type;location;lat;lon;timestamp;P1;durP1;ratioP1;P2;durP2;ratioP2
32196;SDS011;18697;42.770;23.400;2022-09-02T00:01:56;11.80;;;6.00;;
32196;SDS011;18697;42.770;23.400;2022-09-02T00:04:23;7.45;;;5.53;;
32196;SDS011;18697;42.770;23.400;2022-09-02T00:06:51;7.95;;;5.63;;
32196;SDS011;18697;42.770;23.400;2022-09-02T00:09:19;13.85;;;6.55;;
32196;SDS011;18697;42.770;23.400;2022-09-02T00:11:46;8.63;;;6.10;;
32196;SDS011;18697;42.770;23.400;2022-09-02T00:14:15;7.68;;;5.85;;
32196;SDS011;18697;42.770;23.400;2022-09-02T00:16:43;7.07;;;5.07;;
32196;SDS011;18697;42.770;23.400;2022-09-02T00:19:16;7.13;;;5.20;;
32196;SDS011;18697;42.770;23.400;2022-09-02T00:21:47;10.60;;;5.78;;
32196;SDS011;18697;42.770;23.400;2022-09-02T00:24:13;8.75;;;5.40;;
32196;SDS011;18697;42.770;23.400;2022-09-02T00:26:38;8.70;;;5.07;;
32196;SDS011;18697;42.770;23.400;2022-09-02T00:29:04;7.60;;;5.57;;
32196;SDS011;18697;42.770;23.400;2022-09-02T00:31:30;6.50;;;5.05;;
32196;SDS011;18697;42.770;23.400;2022-09-02T00:33:58;7.03;;;4.72;;
32196;SDS011;18697;42.770;23.400;2022-09-02T00:36:23;8.63;;;5.47;;
32196;SDS011;18697;42.770;23.400;2022-09-02T00:38:49;8.52;;;5.13;;
32196;SDS011;18697;42.770;23.400;2022-09-02T00:41:17;9.95;;;6.15;;
32196;SDS011;18697;42.770;23.400;2022-09-02T00:46:17;8.73;;;5.47;;
32196;SDS011;18697;42.770;23.400;2022-09-02T00:48:48;13.25;;;7.63;;
32196;SDS011;18697;42.770;23.400;2022-09-02T00:51:20;9.15;;;5.47;;
32196;SDS011;18697;42.770;23.400;2022-09-02T00:53:46;10.35;;;5.68;;
32196;SDS011;18697;42.770;23.400;2022-09-02T00:56:15;8.57;;;5.75;;
32196;SDS011;18697;42.770;23.400;2022-09-02T00:58:45;15.63;;;7.32;;
32196;SDS011;18697;42.770;23.400;2022-09-02T01:01:11;8.32;;;5.97;;
32196;SDS011;18697;42.770;23.400;2022-09-02T01:03:38;9.50;;;6.00;;
32196;SDS011;18697;42.770;23.400;2022-09-02T01:06:05;10.57;;;6.20;;
32196;SDS011;18697;42.770;23.400;2022-09-02T01:08:32;9.32;;;6.07;;
32196;SDS011;18697;42.770;23.400;2022-09-02T01:10:59;8.57;;;6.10;;
32196;SDS011;18697;42.770;23.400;2022-09-02T01:13:28;11.98;;;6.20;;
32196;SDS011;18697;42.770;23.400;2022-09-02T01:15:57;12.88;;;6.85;;
32196;SDS011;18697;42.770;23.400;2022-09-02T01:18:29;13.18;;;7.18;;
32196;SDS011;18697;42.770;23.400;2022-09-02T01:20:56;13.18;;;7.18;;
32196;SDS011;18697;42.770;23.400;2022-09-02T01:23:23;9.88;;;6.22;;
32196;SDS011;18697;42.770;23.400;2022-09-02T01:25:49;9.90;;;6.95;;
32196;SDS011;18697;42.770;23.400;2022-09-02T01:28:15;10.15;;;7.00;;
32196;SDS011;18697;42.770;23.400;2022-09-02T01:30:43;13.38;;;7.03;;
32196;SDS011;18697;42.770;23.400;2022-09-02T01:33:12;12.63;;;7.00;;
32196;SDS011;18697;42.770;23.400;2022-09-02T01:35:38;7.40;;;5.72;;
32196;SDS011;18697;42.770;23.400;2022-09-02T01:38:04;8.48;;;6.82;;
32196;SDS011;18697;42.770;23.400;2022-09-02T01:40:30;10.68;;;8.27;;
32196;SDS011;18697;42.770;23.400;2022-09-02T01:43:02;10.18;;;7.10;;
32196;SDS011;18697;42.770;23.400;2022-09-02T01:45:34;12.57;;;7.70;;
32196;SDS011;18697;42.770;23.400;2022-09-02T01:48:00;10.80;;;6.55;;
32196;SDS011;18697;42.770;23.400;2022-09-02T01:50:26;8.27;;;6.25;;
32196;SDS011;18697;42.770;23.400;2022-09-02T01:52:52;9.07;;;6.47;;
32196;SDS011;18697;42.770;23.400;2022-09-02T01:55:17;8.60;;;6.82;;
32196;SDS011;18697;42.770;23.400;2022-09-02T01:57:43;8.77;;;6.65;;
32196;SDS011;18697;42.770;23.400;2022-09-02T02:00:09;7.65;;;5.63;;
32196;SDS011;18697;42.770;23.400;2022-09-02T02:02:35;7.43;;;5.07;;
32196;SDS011;18697;42.770;23.400;2022-09-02T02:05:01;7.30;;;4.75;;
32196;SDS011;18697;42.770;23.400;2022-09-02T02:07:27;9.98;;;6.32;;
32196;SDS011;18697;42.770;23.400;2022-09-02T02:09:52;14.60;;;7.13;;
32196;SDS011;18697;42.770;23.400;2022-09-02T02:12:18;11.27;;;6.68;;
32196;SDS011;18697;42.770;23.400;2022-09-02T02:14:44;10.38;;;6.68;;
32196;SDS011;18697;42.770;23.400;2022-09-02T02:17:09;10.15;;;7.30;;
32196;SDS011;18697;42.770;23.400;2022-09-02T02:19:35;10.32;;;8.07;;
32196;SDS011;18697;42.770;23.400;2022-09-02T02:22:01;9.02;;;7.40;;
32196;SDS011;18697;42.770;23.400;2022-09-02T02:24:26;8.57;;;6.65;;
32196;SDS011;18697;42.770;23.400;2022-09-02T02:26:52;11.93;;;7.25;;
32196;SDS011;18697;42.770;23.400;2022-09-02T02:29:17;7.78;;;6.43;;
32196;SDS011;18697;42.770;23.400;2022-09-02T02:31:43;10.30;;;6.25;;
32196;SDS011;18697;42.770;23.400;2022-09-02T02:34:09;9.45;;;6.97;;
32196;SDS011;18697;42.770;23.400;2022-09-02T02:36:35;12.52;;;7.88;;
32196;SDS011;18697;42.770;23.400;2022-09-02T02:39:02;8.75;;;6.70;;
32196;SDS011;18697;42.770;23.400;2022-09-02T02:41:29;11.32;;;7.03;;
32196;SDS011;18697;42.770;23.400;2022-09-02T02:43:55;12.00;;;7.07;;
32196;SDS011;18697;42.770;23.400;2022-09-02T02:46:20;9.10;;;5.90;;
32196;SDS011;18697;42.770;23.400;2022-09-02T02:48:46;8.50;;;5.90;;
32196;SDS011;18697;42.770;23.400;2022-09-02T02:51:11;8.57;;;6.28;;
32196;SDS011;18697;42.770;23.400;2022-09-02T02:53:36;5.47;;;4.95;;
32196;SDS011;18697;42.770;23.400;2022-09-02T02:56:03;6.20;;;5.03;;
32196;SDS011;18697;42.770;23.400;2022-09-02T02:58:30;7.70;;;5.82;;
32196;SDS011;18697;42.770;23.400;2022-09-02T03:00:56;8.00;;;6.45;;
32196;SDS011;18697;42.770;23.400;2022-09-02T03:03:22;8.63;;;5.75;;
32196;SDS011;18697;42.770;23.400;2022-09-02T03:05:48;8.50;;;6.43;;
32196;SDS011;18697;42.770;23.400;2022-09-02T03:08:15;6.47;;;5.43;;
32196;SDS011;18697;42.770;23.400;2022-09-02T03:10:45;6.35;;;5.50;;
32196;SDS011;18697;42.770;23.400;2022-09-02T03:13:12;8.88;;;5.38;;
32196;SDS011;18697;42.770;23.400;2022-09-02T03:15:39;6.68;;;5.78;;
32196;SDS011;18697;42.770;23.400;2022-09-02T03:18:05;8.68;;;5.47;;
32196;SDS011;18697;42.770;23.400;2022-09-02T03:20:31;7.47;;;6.00;;
32196;SDS011;18697;42.770;23.400;2022-09-02T03:22:58;7.57;;;5.78;;
32196;SDS011;18697;42.770;23.400;2022-09-02T03:25:25;13.32;;;5.90;;
32196;SDS011;18697;42.770;23.400;2022-09-02T03:27:52;9.57;;;6.07;;
32196;SDS011;18697;42.770;23.400;2022-09-02T03:30:19;6.70;;;5.72;;
32196;SDS011;18697;42.770;23.400;2022-09-02T03:32:48;7.30;;;6.43;;
32196;SDS011;18697;42.770;23.400;2022-09-02T03:35:15;7.82;;;6.18;;
32196;SDS011;18697;42.770;23.400;2022-09-02T03:37:42;7.57;;;6.35;;
32196;SDS011;18697;42.770;23.400;2022-09-02T03:40:10;6.40;;;5.63;;
32196;SDS011;18697;42.770;23.400;2022-09-02T03:42:38;7.85;;;6.30;;
32196;SDS011;18697;42.770;23.400;2022-09-02T03:45:05;6.47;;;5.78;;
32196;SDS011;18697;42.770;23.400;2022-09-02T03:47:32;7.07;;;6.20;;
32196;SDS011;18697;42.770;23.400;2022-09-02T03:49:57;7.90;;;5.50;;
32196;SDS011;18697;42.770;23.400;2022-09-02T03:52:23;6.78;;;4.97;;
32196;SDS011;18697;42.770;23.400;2022-09-02T03:54:49;6.97;;;5.63;;
32196;SDS011;18697;42.770;23.400;2022-09-02T03:57:14;8.00;;;5.70;;
32196;SDS011;18697;42.770;23.400;2022-09-02T03:59:40;7.50;;;5.97;;
32196;SDS011;18697;42.770;23.400;2022-09-02T04:02:05;6.40;;;5.18;;
32196;SDS011;18697;42.770;23.400;2022-09-02T04:04:31;6.28;;;5.68;;
32196;SDS011;18697;42.770;23.400;2022-09-02T04:06:57;5.80;;;5.10;;
32196;SDS011;18697;42.770;23.400;2022-09-02T04:09:23;5.30;;;4.80;;
32196;SDS011;18697;42.770;23.400;2022-09-02T04:11:49;6.55;;;5.20;;
32196;SDS011;18697;42.770;23.400;2022-09-02T04:14:14;6.57;;;5.25;;
32196;SDS011;18697;42.770;23.400;2022-09-02T04:16:40;11.60;;;7.35;;
32196;SDS011;18697;42.770;23.400;2022-09-02T04:19:05;11.30;;;7.43;;
32196;SDS011;18697;42.770;23.400;2022-09-02T04:21:34;7.47;;;5.30;;
32196;SDS011;18697;42.770;23.400;2022-09-02T04:24:02;7.72;;;5.38;;
32196;SDS011;18697;42.770;23.400;2022-09-02T04:26:28;21.15;;;6.50;;
32196;SDS011;18697;42.770;23.400;2022-09-02T04:28:54;9.93;;;6.47;;
32196;SDS011;18697;42.770;23.400;2022-09-02T04:31:20;19.65;;;8.52;;
32196;SDS011;18697;42.770;23.400;2022-09-02T04:33:47;10.80;;;7.15;;
32196;SDS011;18697;42.770;23.400;2022-09-02T04:36:13;17.58;;;7.15;;
32196;SDS011;18697;42.770;23.400;2022-09-02T04:38:40;9.80;;;7.28;;
32196;SDS011;18697;42.770;23.400;2022-09-02T04:41:10;21.25;;;9.00;;
32196;SDS011;18697;42.770;23.400;2022-09-02T04:43:40;11.57;;;7.20;;
32196;SDS011;18697;42.770;23.400;2022-09-02T04:46:06;18.70;;;7.18;;
32196;SDS011;18697;42.770;23.400;2022-09-02T04:48:34;10.32;;;6.57;;
32196;SDS011;18697;42.770;23.400;2022-09-02T04:51:20;10.90;;;7.05;;
32196;SDS011;18697;42.770;23.400;2022-09-02T04:53:48;9.48;;;6.25;;
32196;SDS011;18697;42.770;23.400;2022-09-02T04:56:18;14.02;;;8.55;;
32196;SDS011;18697;42.770;23.400;2022-09-02T04:58:47;14.20;;;9.65;;
32196;SDS011;18697;42.770;23.400;2022-09-02T05:01:16;17.95;;;11.48;;
32196;SDS011;18697;42.770;23.400;2022-09-02T05:03:45;16.42;;;10.32;;
32196;SDS011;18697;42.770;23.400;2022-09-02T05:06:13;9.95;;;8.40;;
32196;SDS011;18697;42.770;23.400;2022-09-02T05:08:41;13.13;;;8.27;;
32196;SDS011;18697;42.770;23.400;2022-09-02T05:11:13;10.45;;;7.22;;
32196;SDS011;18697;42.770;23.400;2022-09-02T05:13:48;8.88;;;6.68;;
32196;SDS011;18697;42.770;23.400;2022-09-02T05:16:18;11.52;;;7.25;;
32196;SDS011;18697;42.770;23.400;2022-09-02T05:18:49;11.15;;;7.18;;
32196;SDS011;18697;42.770;23.400;2022-09-02T05:21:15;8.60;;;7.13;;
32196;SDS011;18697;42.770;23.400;2022-09-02T05:23:41;9.27;;;6.75;;
32196;SDS011;18697;42.770;23.400;2022-09-02T05:26:08;15.68;;;7.97;;
32196;SDS011;18697;42.770;23.400;2022-09-02T05:28:35;7.70;;;6.88;;
32196;SDS011;18697;42.770;23.400;2022-09-02T05:31:05;9.45;;;6.57;;
32196;SDS011;18697;42.770;23.400;2022-09-02T05:33:35;9.02;;;6.45;;
32196;SDS011;18697;42.770;23.400;2022-09-02T05:36:03;9.90;;;6.88;;
32196;SDS011;18697;42.770;23.400;2022-09-02T05:38:29;8.85;;;6.47;;
32196;SDS011;18697;42.770;23.400;2022-09-02T05:40:55;8.15;;;5.88;;
32196;SDS011;18697;42.770;23.400;2022-09-02T05:43:21;6.95;;;6.07;;
32196;SDS011;18697;42.770;23.400;2022-09-02T05:45:47;7.10;;;6.40;;
32196;SDS011;18697;42.770;23.400;2022-09-02T05:48:13;7.88;;;6.82;;
32196;SDS011;18697;42.770;23.400;2022-09-02T05:50:57;7.82;;;6.63;;
32196;SDS011;18697;42.770;23.400;2022-09-02T05:53:22;10.23;;;6.22;;
32196;SDS011;18697;42.770;23.400;2022-09-02T05:55:50;9.07;;;6.82;;
32196;SDS011;18697;42.770;23.400;2022-09-02T05:58:16;10.93;;;8.30;;
32196;SDS011;18697;42.770;23.400;2022-09-02T06:00:41;12.20;;;8.70;;
32196;SDS011;18697;42.770;23.400;2022-09-02T06:03:07;10.57;;;8.60;;
32196;SDS011;18697;42.770;23.400;2022-09-02T06:05:32;13.43;;;8.45;;
32196;SDS011;18697;42.770;23.400;2022-09-02T06:07:57;13.02;;;9.00;;
32196;SDS011;18697;42.770;23.400;2022-09-02T06:10:23;12.02;;;9.65;;
32196;SDS011;18697;42.770;23.400;2022-09-02T06:12:48;10.70;;;8.50;;
32196;SDS011;18697;42.770;23.400;2022-09-02T06:15:13;15.68;;;9.10;;
32196;SDS011;18697;42.770;23.400;2022-09-02T06:17:39;7.53;;;6.57;;
32196;SDS011;18697;42.770;23.400;2022-09-02T06:20:07;12.45;;;8.23;;
32196;SDS011;18697;42.770;23.400;2022-09-02T06:22:33;12.48;;;8.77;;
32196;SDS011;18697;42.770;23.400;2022-09-02T06:24:59;15.93;;;7.88;;
32196;SDS011;18697;42.770;23.400;2022-09-02T06:27:24;12.18;;;8.05;;
32196;SDS011;18697;42.770;23.400;2022-09-02T06:29:49;9.70;;;7.13;;
32196;SDS011;18697;42.770;23.400;2022-09-02T06:32:15;12.43;;;7.75;;
32196;SDS011;18697;42.770;23.400;2022-09-02T06:34:40;8.40;;;6.78;;
32196;SDS011;18697;42.770;23.400;2022-09-02T06:37:06;10.70;;;6.70;;
32196;SDS011;18697;42.770;23.400;2022-09-02T06:39:31;9.85;;;6.55;;
32196;SDS011;18697;42.770;23.400;2022-09-02T06:41:56;10.35;;;7.03;;
32196;SDS011;18697;42.770;23.400;2022-09-02T06:44:23;14.48;;;7.75;;
32196;SDS011;18697;42.770;23.400;2022-09-02T06:46:55;10.35;;;7.57;;
32196;SDS011;18697;42.770;23.400;2022-09-02T06:49:24;10.02;;;7.50;;
32196;SDS011;18697;42.770;23.400;2022-09-02T06:51:50;9.02;;;7.13;;
32196;SDS011;18697;42.770;23.400;2022-09-02T06:54:19;10.63;;;7.88;;
32196;SDS011;18697;42.770;23.400;2022-09-02T06:56:46;11.45;;;7.85;;
32196;SDS011;18697;42.770;23.400;2022-09-02T06:59:12;11.20;;;8.55;;
32196;SDS011;18697;42.770;23.400;2022-09-02T07:01:37;9.73;;;6.47;;
32196;SDS011;18697;42.770;23.400;2022-09-02T07:04:03;6.88;;;6.20;;
32196;SDS011;18697;42.770;23.400;2022-09-02T07:06:48;10.82;;;6.53;;
32196;SDS011;18697;42.770;23.400;2022-09-02T07:09:17;8.98;;;6.55;;
32196;SDS011;18697;42.770;23.400;2022-09-02T07:11:45;8.95;;;6.57;;
32196;SDS011;18697;42.770;23.400;2022-09-02T07:14:12;10.30;;;6.50;;
32196;SDS011;18697;42.770;23.400;2022-09-02T07:16:43;10.23;;;6.35;;
32196;SDS011;18697;42.770;23.400;2022-09-02T07:19:12;9.45;;;7.03;;
32196;SDS011;18697;42.770;23.400;2022-09-02T07:21:38;9.30;;;6.30;;
32196;SDS011;18697;42.770;23.400;2022-09-02T07:24:05;8.93;;;7.47;;
32196;SDS011;18697;42.770;23.400;2022-09-02T07:26:32;10.35;;;6.65;;
32196;SDS011;18697;42.770;23.400;2022-09-02T07:28:58;6.45;;;5.82;;
32196;SDS011;18697;42.770;23.400;2022-09-02T07:31:23;8.55;;;6.20;;
32196;SDS011;18697;42.770;23.400;2022-09-02T07:33:51;6.03;;;5.40;;
32196;SDS011;18697;42.770;23.400;2022-09-02T07:36:16;8.90;;;5.70;;
32196;SDS011;18697;42.770;23.400;2022-09-02T07:38:45;8.13;;;5.38;;
32196;SDS011;18697;42.770;23.400;2022-09-02T07:41:11;7.30;;;5.15;;
32196;SDS011;18697;42.770;23.400;2022-09-02T07:43:37;7.55;;;5.38;;
32196;SDS011;18697;42.770;23.400;2022-09-02T07:46:05;5.55;;;4.72;;
32196;SDS011;18697;42.770;23.400;2022-09-02T07:48:31;5.30;;;4.50;;
32196;SDS011;18697;42.770;23.400;2022-09-02T07:50:58;5.25;;;4.53;;
32196;SDS011;18697;42.770;23.400;2022-09-02T07:53:23;5.60;;;4.32;;
32196;SDS011;18697;42.770;23.400;2022-09-02T07:55:50;5.53;;;4.80;;
32196;SDS011;18697;42.770;23.400;2022-09-02T07:58:16;4.47;;;4.07;;
32196;SDS011;18697;42.770;23.400;2022-09-02T08:00:44;5.20;;;4.53;;
32196;SDS011;18697;42.770;23.400;2022-09-02T08:03:09;7.90;;;4.15;;
32196;SDS011;18697;42.770;23.400;2022-09-02T08:05:36;4.90;;;4.35;;
32196;SDS011;18697;42.770;23.400;2022-09-02T08:08:03;4.90;;;4.40;;
32196;SDS011;18697;42.770;23.400;2022-09-02T08:10:29;5.72;;;4.20;;
32196;SDS011;18697;42.770;23.400;2022-09-02T08:12:59;5.45;;;4.18;;
32196;SDS011;18697;42.770;23.400;2022-09-02T08:15:25;5.18;;;4.22;;
32196;SDS011;18697;42.770;23.400;2022-09-02T08:17:53;7.15;;;4.20;;
32196;SDS011;18697;42.770;23.400;2022-09-02T08:20:19;4.75;;;4.00;;
32196;SDS011;18697;42.770;23.400;2022-09-02T08:22:44;7.35;;;4.72;;
32196;SDS011;18697;42.770;23.400;2022-09-02T08:25:10;6.80;;;4.72;;
32196;SDS011;18697;42.770;23.400;2022-09-02T08:27:36;5.00;;;4.43;;
32196;SDS011;18697;42.770;23.400;2022-09-02T08:30:02;5.43;;;4.28;;
32196;SDS011;18697;42.770;23.400;2022-09-02T08:32:29;7.38;;;5.10;;
32196;SDS011;18697;42.770;23.400;2022-09-02T08:34:56;4.88;;;4.32;;
32196;SDS011;18697;42.770;23.400;2022-09-02T08:37:27;5.70;;;4.05;;
32196;SDS011;18697;42.770;23.400;2022-09-02T08:39:53;5.22;;;4.70;;
32196;SDS011;18697;42.770;23.400;2022-09-02T08:42:35;5.38;;;4.53;;
32196;SDS011;18697;42.770;23.400;2022-09-02T08:45:13;5.43;;;4.57;;
32196;SDS011;18697;42.770;23.400;2022-09-02T08:47:49;5.38;;;4.18;;
32196;SDS011;18697;42.770;23.400;2022-09-02T08:50:39;4.78;;;4.03;;
32196;SDS011;18697;42.770;23.400;2022-09-02T09:15:24;8.20;;;5.05;;
32196;SDS011;18697;42.770;23.400;2022-09-02T09:17:57;8.10;;;5.50;;
32196;SDS011;18697;42.770;23.400;2022-09-02T09:20:25;6.97;;;4.70;;
32196;SDS011;18697;42.770;23.400;2022-09-02T09:22:57;3.58;;;3.28;;
32196;SDS011;18697;42.770;23.400;2022-09-02T09:25:25;9.52;;;4.80;;
32196;SDS011;18697;42.770;23.400;2022-09-02T09:28:00;4.80;;;4.10;;
32196;SDS011;18697;42.770;23.400;2022-09-02T09:30:26;5.38;;;4.32;;
32196;SDS011;18697;42.770;23.400;2022-09-02T09:32:56;6.05;;;4.90;;
32196;SDS011;18697;42.770;23.400;2022-09-02T09:35:29;42.17;;;23.73;;
32196;SDS011;18697;42.770;23.400;2022-09-02T09:38:15;8.43;;;6.88;;
32196;SDS011;18697;42.770;23.400;2022-09-02T09:40:40;7.22;;;6.05;;
32196;SDS011;18697;42.770;23.400;2022-09-02T09:45:44;7.13;;;5.70;;
32196;SDS011;18697;42.770;23.400;2022-09-02T09:50:40;20.92;;;13.82;;
32196;SDS011;18697;42.770;23.400;2022-09-02T09:53:23;29.17;;;19.05;;
32196;SDS011;18697;42.770;23.400;2022-09-02T09:55:54;17.95;;;12.52;;
32196;SDS011;18697;42.770;23.400;2022-09-02T09:58:41;17.60;;;11.90;;
32196;SDS011;18697;42.770;23.400;2022-09-02T10:01:28;5.03;;;4.43;;
32196;SDS011;18697;42.770;23.400;2022-09-02T10:03:57;12.23;;;9.05;;
32196;SDS011;18697;42.770;23.400;2022-09-02T10:08:58;16.63;;;11.50;;
32196;SDS011;18697;42.770;23.400;2022-09-02T10:11:26;14.95;;;10.80;;
32196;SDS011;18697;42.770;23.400;2022-09-02T10:14:04;14.45;;;11.00;;
32196;SDS011;18697;42.770;23.400;2022-09-02T10:27:20;5.60;;;5.05;;
32196;SDS011;18697;42.770;23.400;2022-09-02T10:37:44;6.28;;;5.68;;
32196;SDS011;18697;42.770;23.400;2022-09-02T10:40:21;44.35;;;26.98;;
32196;SDS011;18697;42.770;23.400;2022-09-02T10:43:01;20.65;;;14.45;;
32196;SDS011;18697;42.770;23.400;2022-09-02T10:45:33;23.33;;;14.80;;
32196;SDS011;18697;42.770;23.400;2022-09-02T10:48:03;33.20;;;17.35;;
32196;SDS011;18697;42.770;23.400;2022-09-02T10:50:39;21.55;;;13.70;;
32196;SDS011;18697;42.770;23.400;2022-09-02T10:53:18;17.55;;;13.20;;
32196;SDS011;18697;42.770;23.400;2022-09-02T10:56:01;8.73;;;6.32;;
32196;SDS011;18697;42.770;23.400;2022-09-02T11:01:24;16.00;;;10.43;;
32196;SDS011;18697;42.770;23.400;2022-09-02T11:06:43;16.60;;;12.60;;
32196;SDS011;18697;42.770;23.400;2022-09-02T11:12:17;9.57;;;7.40;;
32196;SDS011;18697;42.770;23.400;2022-09-02T11:17:44;10.20;;;7.38;;
32196;SDS011;18697;42.770;23.400;2022-09-02T11:20:27;9.82;;;7.50;;
32196;SDS011;18697;42.770;23.400;2022-09-02T11:25:38;13.32;;;8.10;;
32196;SDS011;18697;42.770;23.400;2022-09-02T11:28:20;7.90;;;6.40;;
32196;SDS011;18697;42.770;23.400;2022-09-02T11:30:48;5.57;;;5.03;;
32196;SDS011;18697;42.770;23.400;2022-09-02T11:33:19;8.10;;;5.93;;
32196;SDS011;18697;42.770;23.400;2022-09-02T11:35:52;7.68;;;6.88;;
32196;SDS011;18697;42.770;23.400;2022-09-02T11:38:37;7.18;;;5.72;;
32196;SDS011;18697;42.770;23.400;2022-09-02T11:41:21;8.60;;;6.95;;
32196;SDS011;18697;42.770;23.400;2022-09-02T11:43:54;7.70;;;6.25;;
32196;SDS011;18697;42.770;23.400;2022-09-02T11:49:23;6.18;;;5.28;;
32196;SDS011;18697;42.770;23.400;2022-09-02T11:55:16;6.43;;;5.57;;
32196;SDS011;18697;42.770;23.400;2022-09-02T11:57:53;9.07;;;6.35;;
32196;SDS011;18697;42.770;23.400;2022-09-02T12:02:58;12.25;;;8.32;;
32196;SDS011;18697;42.770;23.400;2022-09-02T12:08:03;8.63;;;6.35;;
32196;SDS011;18697;42.770;23.400;2022-09-02T12:21:23;10.40;;;8.52;;
32196;SDS011;18697;42.770;23.400;2022-09-02T12:26:15;9.95;;;8.75;;
32196;SDS011;18697;42.770;23.400;2022-09-02T12:28:42;11.95;;;9.63;;
32196;SDS011;18697;42.770;23.400;2022-09-02T12:33:59;11.98;;;9.32;;
32196;SDS011;18697;42.770;23.400;2022-09-02T12:44:29;8.95;;;7.40;;
32196;SDS011;18697;42.770;23.400;2022-09-02T12:55:03;11.80;;;8.52;;
32196;SDS011;18697;42.770;23.400;2022-09-02T12:57:37;10.63;;;8.68;;
32196;SDS011;18697;42.770;23.400;2022-09-02T13:00:05;14.10;;;9.65;;
32196;SDS011;18697;42.770;23.400;2022-09-02T13:16:27;11.80;;;8.65;;
32196;SDS011;18697;42.770;23.400;2022-09-02T13:19:24;12.38;;;9.75;;
32196;SDS011;18697;42.770;23.400;2022-09-02T13:22:02;13.27;;;9.60;;
32196;SDS011;18697;42.770;23.400;2022-09-02T13:30:53;11.50;;;9.20;;
32196;SDS011;18697;42.770;23.400;2022-09-02T13:33:26;11.77;;;9.85;;
32196;SDS011;18697;42.770;23.400;2022-09-02T13:35:52;15.68;;;10.35;;
32196;SDS011;18697;42.770;23.400;2022-09-02T13:38:21;11.20;;;9.60;;
32196;SDS011;18697;42.770;23.400;2022-09-02T13:40:48;15.82;;;9.75;;
32196;SDS011;18697;42.770;23.400;2022-09-02T13:45:39;11.63;;;9.38;;
32196;SDS011;18697;42.770;23.400;2022-09-02T13:48:09;13.23;;;9.52;;
32196;SDS011;18697;42.770;23.400;2022-09-02T13:50:43;12.48;;;9.98;;
32196;SDS011;18697;42.770;23.400;2022-09-02T13:53:12;14.75;;;10.80;;
32196;SDS011;18697;42.770;23.400;2022-09-02T13:55:59;13.32;;;10.35;;
32196;SDS011;18697;42.770;23.400;2022-09-02T14:01:15;14.00;;;10.52;;
32196;SDS011;18697;42.770;23.400;2022-09-02T14:03:49;15.07;;;10.38;;
32196;SDS011;18697;42.770;23.400;2022-09-02T14:06:17;12.55;;;10.40;;
32196;SDS011;18697;42.770;23.400;2022-09-02T14:08:47;14.35;;;11.30;;
32196;SDS011;18697;42.770;23.400;2022-09-02T14:11:14;20.02;;;13.70;;
32196;SDS011;18697;42.770;23.400;2022-09-02T14:13:42;19.35;;;13.52;;
32196;SDS011;18697;42.770;23.400;2022-09-02T14:16:33;22.55;;;14.60;;
32196;SDS011;18697;42.770;23.400;2022-09-02T14:19:04;24.90;;;15.13;;
32196;SDS011;18697;42.770;23.400;2022-09-02T14:21:35;22.25;;;15.27;;
32196;SDS011;18697;42.770;23.400;2022-09-02T14:24:02;24.58;;;16.80;;
32196;SDS011;18697;42.770;23.400;2022-09-02T14:26:40;22.95;;;13.95;;
32196;SDS011;18697;42.770;23.400;2022-09-02T14:29:09;15.52;;;11.20;;
32196;SDS011;18697;42.770;23.400;2022-09-02T14:31:37;15.73;;;10.15;;
32196;SDS011;18697;42.770;23.400;2022-09-02T14:34:03;13.00;;;8.35;;
32196;SDS011;18697;42.770;23.400;2022-09-02T14:36:57;25.80;;;6.75;;
32196;SDS011;18697;42.770;23.400;2022-09-02T14:39:23;12.82;;;6.40;;
32196;SDS011;18697;42.770;23.400;2022-09-02T14:41:51;9.27;;;7.32;;
32196;SDS011;18697;42.770;23.400;2022-09-02T14:44:32;11.55;;;7.80;;
32196;SDS011;18697;42.770;23.400;2022-09-02T14:47:03;10.75;;;8.25;;
32196;SDS011;18697;42.770;23.400;2022-09-02T14:49:38;16.25;;;9.02;;
32196;SDS011;18697;42.770;23.400;2022-09-02T14:54:45;10.23;;;7.85;;
32196;SDS011;18697;42.770;23.400;2022-09-02T14:57:34;10.30;;;7.20;;
32196;SDS011;18697;42.770;23.400;2022-09-02T15:00:00;12.38;;;7.40;;
32196;SDS011;18697;42.770;23.400;2022-09-02T15:02:33;8.95;;;7.25;;
32196;SDS011;18697;42.770;23.400;2022-09-02T15:05:02;13.02;;;8.13;;
32196;SDS011;18697;42.770;23.400;2022-09-02T15:07:30;12.23;;;8.88;;
32196;SDS011;18697;42.770;23.400;2022-09-02T15:09:55;20.92;;;8.50;;
32196;SDS011;18697;42.770;23.400;2022-09-02T15:12:31;12.35;;;8.68;;
32196;SDS011;18697;42.770;23.400;2022-09-02T15:14:58;11.55;;;7.85;;
32196;SDS011;18697;42.770;23.400;2022-09-02T15:17:24;11.65;;;8.68;;
32196;SDS011;18697;42.770;23.400;2022-09-02T15:19:50;9.68;;;8.02;;
32196;SDS011;18697;42.770;23.400;2022-09-02T15:22:16;15.93;;;9.32;;
32196;SDS011;18697;42.770;23.400;2022-09-02T15:24:44;9.95;;;7.75;;
32196;SDS011;18697;42.770;23.400;2022-09-02T15:27:09;9.95;;;7.55;;
32196;SDS011;18697;42.770;23.400;2022-09-02T15:29:35;27.98;;;9.35;;
32196;SDS011;18697;42.770;23.400;2022-09-02T15:32:01;70.05;;;10.10;;
32196;SDS011;18697;42.770;23.400;2022-09-02T15:34:28;10.68;;;8.00;;
32196;SDS011;18697;42.770;23.400;2022-09-02T15:36:54;12.25;;;9.25;;
32196;SDS011;18697;42.770;23.400;2022-09-02T15:39:21;12.73;;;9.13;;
32196;SDS011;18697;42.770;23.400;2022-09-02T15:41:46;11.45;;;9.25;;
32196;SDS011;18697;42.770;23.400;2022-09-02T15:44:13;14.63;;;9.40;;
32196;SDS011;18697;42.770;23.400;2022-09-02T15:46:39;15.48;;;9.65;;
32196;SDS011;18697;42.770;23.400;2022-09-02T15:49:08;16.85;;;10.52;;
32196;SDS011;18697;42.770;23.400;2022-09-02T15:51:36;16.33;;;9.85;;
32196;SDS011;18697;42.770;23.400;2022-09-02T15:54:07;13.07;;;9.82;;
32196;SDS011;18697;42.770;23.400;2022-09-02T15:56:34;15.23;;;9.52;;
32196;SDS011;18697;42.770;23.400;2022-09-02T16:01:32;12.55;;;8.55;;
32196;SDS011;18697;42.770;23.400;2022-09-02T16:03:58;10.65;;;8.80;;
32196;SDS011;18697;42.770;23.400;2022-09-02T16:06:28;10.60;;;8.70;;
32196;SDS011;18697;42.770;23.400;2022-09-02T16:08:55;12.38;;;8.40;;
32196;SDS011;18697;42.770;23.400;2022-09-02T16:11:21;12.82;;;8.43;;
32196;SDS011;18697;42.770;23.400;2022-09-02T16:13:47;13.52;;;9.40;;
32196;SDS011;18697;42.770;23.400;2022-09-02T16:16:12;10.35;;;8.50;;
32196;SDS011;18697;42.770;23.400;2022-09-02T16:18:39;11.43;;;9.07;;
32196;SDS011;18697;42.770;23.400;2022-09-02T16:21:06;10.85;;;6.93;;
32196;SDS011;18697;42.770;23.400;2022-09-02T16:23:33;10.55;;;6.80;;
32196;SDS011;18697;42.770;23.400;2022-09-02T16:28:35;9.90;;;6.03;;
32196;SDS011;18697;42.770;23.400;2022-09-02T16:31:02;7.70;;;6.50;;
32196;SDS011;18697;42.770;23.400;2022-09-02T16:33:28;10.80;;;8.00;;
32196;SDS011;18697;42.770;23.400;2022-09-02T16:35:54;10.15;;;8.07;;
32196;SDS011;18697;42.770;23.400;2022-09-02T16:38:20;9.73;;;8.45;;
32196;SDS011;18697;42.770;23.400;2022-09-02T16:40:51;10.45;;;7.72;;
32196;SDS011;18697;42.770;23.400;2022-09-02T16:43:18;16.38;;;7.20;;
32196;SDS011;18697;42.770;23.400;2022-09-02T16:45:47;9.63;;;7.60;;
32196;SDS011;18697;42.770;23.400;2022-09-02T16:48:15;11.65;;;7.28;;
32196;SDS011;18697;42.770;23.400;2022-09-02T16:50:41;12.40;;;6.80;;
32196;SDS011;18697;42.770;23.400;2022-09-02T16:53:07;9.30;;;6.85;;
32196;SDS011;18697;42.770;23.400;2022-09-02T16:55:32;7.63;;;5.95;;
32196;SDS011;18697;42.770;23.400;2022-09-02T16:57:58;11.43;;;6.30;;